createdAt,value
2023-04-05T00:00:13.594Z,9.18
2023-04-05T00:02:41.959Z,10.40
2023-04-05T00:05:11.697Z,9.18
2023-04-05T00:07:40.876Z,9.73
2023-04-05T00:10:09.209Z,9.43
2023-04-05T00:12:36.948Z,9.57
2023-04-05T00:15:05.292Z,9.38
2023-04-05T00:17:33.107Z,9.45
2023-04-05T00:20:01.820Z,9.90
2023-04-05T00:22:31.866Z,9.40
2023-04-05T00:25:01.013Z,9.50
2023-04-05T00:27:28.847Z,9.50
2023-04-05T00:29:56.874Z,9.52
2023-04-05T00:32:24.694Z,9.70
2023-04-05T00:34:52.452Z,11.30
2023-04-05T00:37:20.252Z,9.63
2023-04-05T00:39:48.217Z,8.95
2023-04-05T00:42:17.371Z,9.75
2023-04-05T00:44:45.090Z,9.95
2023-04-05T00:47:12.827Z,8.90
2023-04-05T00:49:42.168Z,8.82
2023-04-05T00:52:09.924Z,8.82
2023-04-05T00:54:39.165Z,8.98
2023-04-05T00:57:07.472Z,9.07
2023-04-05T00:59:36.544Z,9.48
2023-04-05T01:02:09.709Z,9.13
2023-04-05T01:04:39.746Z,9.48
2023-04-05T01:07:13.290Z,9.30
2023-04-05T01:09:48.662Z,9.00
2023-04-05T01:12:18.970Z,9.07
2023-04-05T01:14:50.916Z,8.93
2023-04-05T01:17:22.258Z,9.25
2023-04-05T01:19:53.475Z,9.38
2023-04-05T01:23:07.272Z,8.95
2023-04-05T01:26:00.069Z,8.27
2023-04-05T01:28:44.181Z,8.95
2023-04-05T01:33:50.619Z,8.57
2023-04-05T01:36:25.073Z,7.88
2023-04-05T01:38:55.986Z,8.73
2023-04-05T01:41:24.541Z,8.77
2023-04-05T01:43:52.278Z,9.43
2023-04-05T01:46:21.439Z,9.07
2023-04-05T01:48:49.205Z,8.52
2023-04-05T01:51:16.939Z,8.85
2023-04-05T01:53:44.673Z,7.78
2023-04-05T01:56:12.380Z,10.30
2023-04-05T01:58:40.134Z,8.90
2023-04-05T02:01:07.931Z,8.48
2023-04-05T02:03:37.278Z,8.30
2023-04-05T02:06:06.471Z,8.60
2023-04-05T02:08:34.277Z,9.43
2023-04-05T02:11:02.353Z,8.35
2023-04-05T02:13:30.151Z,8.70
2023-04-05T02:15:57.924Z,8.55
2023-04-05T02:18:31.215Z,8.02
2023-04-05T02:21:04.710Z,8.07
2023-04-05T02:23:33.049Z,9.07
2023-04-05T02:26:01.282Z,8.35
2023-04-05T02:28:28.996Z,8.02
2023-04-05T02:30:56.908Z,8.57
2023-04-05T02:33:24.647Z,7.45
2023-04-05T02:35:54.801Z,8.25
2023-04-05T02:38:23.985Z,7.97
2023-04-05T02:40:52.105Z,7.65
2023-04-05T02:43:19.835Z,7.65
2023-04-05T02:45:47.659Z,7.80
2023-04-05T02:48:15.484Z,8.43
2023-04-05T02:50:43.348Z,8.27
2023-04-05T02:53:11.234Z,7.65
2023-04-05T02:55:42.089Z,7.93
2023-04-05T02:58:10.127Z,8.27
2023-04-05T03:00:38.388Z,8.10
2023-04-05T03:03:06.502Z,8.13
2023-04-05T03:05:34.360Z,8.00
2023-04-05T03:08:02.375Z,8.13
2023-04-05T03:10:34.944Z,8.90
2023-04-05T03:13:04.065Z,8.57
2023-04-05T03:15:33.842Z,9.55
2023-04-05T03:18:01.652Z,8.68
2023-04-05T03:20:29.444Z,9.18
2023-04-05T03:22:57.735Z,9.07
2023-04-05T03:25:25.617Z,9.13
2023-04-05T03:27:53.945Z,9.32
2023-04-05T03:30:23.434Z,11.27
2023-04-05T03:32:51.555Z,9.85
2023-04-05T03:35:19.388Z,14.80
2023-04-05T03:37:47.272Z,11.57
2023-04-05T03:40:15.128Z,13.25
2023-04-05T03:42:44.429Z,10.02
2023-04-05T03:45:12.741Z,10.00
2023-04-05T03:47:41.870Z,9.07
2023-04-05T03:50:10.496Z,10.32
2023-04-05T03:52:38.235Z,9.52
2023-04-05T03:55:06.878Z,10.07
2023-04-05T03:57:34.857Z,9.90
2023-04-05T04:00:04.009Z,9.45
2023-04-05T04:02:31.820Z,9.35
2023-04-05T04:05:01.106Z,9.05
2023-04-05T04:07:28.848Z,10.07
2023-04-05T04:09:56.636Z,9.23
2023-04-05T04:12:24.434Z,9.57
2023-04-05T04:14:52.115Z,10.00
2023-04-05T04:17:28.059Z,32.85
2023-04-05T04:19:55.894Z,18.55
2023-04-05T04:22:26.760Z,22.05
2023-04-05T04:24:54.705Z,21.05
2023-04-05T04:27:22.700Z,16.65
2023-04-05T04:29:56.921Z,13.13
2023-04-05T04:32:27.123Z,10.77
2023-04-05T04:34:55.907Z,10.95
2023-04-05T04:37:30.268Z,11.65
2023-04-05T04:40:06.197Z,10.38
2023-04-05T04:42:38.872Z,10.50
2023-04-05T04:45:07.681Z,10.13
2023-04-05T04:47:35.402Z,12.80
2023-04-05T04:50:04.741Z,12.57
2023-04-05T04:52:34.932Z,27.58
2023-04-05T04:55:03.429Z,25.83
2023-04-05T04:57:31.202Z,17.38
2023-04-05T04:59:58.989Z,15.35
2023-04-05T05:02:29.119Z,12.05
2023-04-05T05:04:58.333Z,12.23
2023-04-05T05:07:26.165Z,10.57
2023-04-05T05:09:55.459Z,11.52
2023-04-05T05:12:23.603Z,11.13
2023-04-05T05:14:51.343Z,10.75
2023-04-05T05:17:19.033Z,10.57
2023-04-05T05:19:46.862Z,10.85
2023-04-05T05:22:14.646Z,10.80
2023-04-05T05:24:42.587Z,10.10
2023-04-05T05:27:11.733Z,10.48
2023-04-05T05:29:39.485Z,11.32
2023-04-05T05:32:07.592Z,11.90
2023-04-05T05:34:35.654Z,12.45
2023-04-05T05:37:03.398Z,11.45
2023-04-05T05:39:31.123Z,10.32
2023-04-05T05:41:58.916Z,10.02
2023-04-05T05:44:28.215Z,10.80
2023-04-05T05:46:56.108Z,10.75
2023-04-05T05:49:24.017Z,11.13
2023-04-05T05:51:52.636Z,10.63
2023-04-05T05:54:20.765Z,9.90
2023-04-05T05:56:48.482Z,11.52
2023-04-05T05:59:16.360Z,12.15
2023-04-05T06:01:46.517Z,11.55
2023-04-05T06:04:14.721Z,12.23
2023-04-05T06:06:43.750Z,11.65
2023-04-05T06:09:11.806Z,11.27
2023-04-05T06:11:49.509Z,12.77
2023-04-05T06:14:23.597Z,11.57
2023-04-05T06:16:52.738Z,11.13
2023-04-05T06:19:20.573Z,29.80
2023-04-05T06:21:48.318Z,35.33
2023-04-05T06:24:16.052Z,12.38
2023-04-05T06:26:44.051Z,10.60
2023-04-05T06:29:12.131Z,10.40
2023-04-05T06:31:41.531Z,9.98
2023-04-05T06:34:10.666Z,10.25
2023-04-05T06:36:38.385Z,10.30
2023-04-05T06:39:06.360Z,10.07
2023-04-05T06:41:34.080Z,10.98
2023-04-05T06:44:01.909Z,11.55
2023-04-05T06:46:29.878Z,10.40
2023-04-05T06:48:57.610Z,9.70
2023-04-05T06:51:27.079Z,9.10
2023-04-05T06:53:54.794Z,8.77
2023-04-05T06:56:23.227Z,9.15
2023-04-05T06:58:51.812Z,8.63
2023-04-05T07:01:19.673Z,8.57
2023-04-05T07:03:47.645Z,9.23
2023-04-05T07:06:15.745Z,9.73
2023-04-05T07:08:44.808Z,8.50
2023-04-05T07:11:14.667Z,9.23
2023-04-05T07:13:42.816Z,8.52
2023-04-05T07:16:10.651Z,8.50
2023-04-05T07:18:38.422Z,8.00
2023-04-05T07:21:06.328Z,8.00
2023-04-05T07:23:34.134Z,8.00
2023-04-05T07:26:05.692Z,8.13
2023-04-05T07:28:35.547Z,7.65
2023-04-05T07:31:04.153Z,7.57
2023-04-05T07:33:31.991Z,7.18
2023-04-05T07:35:59.779Z,7.65
2023-04-05T07:38:29.280Z,6.47
2023-04-05T07:40:57.484Z,6.72
2023-04-05T07:43:26.943Z,6.93
2023-04-05T07:46:02.626Z,7.38
2023-04-05T07:48:30.415Z,7.10
2023-04-05T07:50:58.617Z,6.50
2023-04-05T07:53:26.385Z,7.13
2023-04-05T07:55:54.589Z,6.00
2023-04-05T07:58:22.640Z,6.63
2023-04-05T08:00:53.196Z,7.72
2023-04-05T08:03:21.031Z,7.97
2023-04-05T08:05:48.874Z,6.25
2023-04-05T08:08:16.686Z,6.75
2023-04-05T08:10:44.493Z,6.78
2023-04-05T08:13:12.375Z,6.95
2023-04-05T08:15:41.434Z,6.18
2023-04-05T08:18:10.785Z,6.20
2023-04-05T08:20:40.792Z,6.05
2023-04-05T08:23:08.959Z,6.18
2023-04-05T08:25:36.841Z,7.75
2023-04-05T08:28:05.477Z,5.15
2023-04-05T08:30:33.275Z,5.45
2023-04-05T08:33:01.130Z,11.07
2023-04-05T08:35:30.561Z,5.32
2023-04-05T08:37:58.318Z,5.05
2023-04-05T08:40:34.357Z,5.05
2023-04-05T08:43:11.360Z,5.57
2023-04-05T08:45:51.900Z,5.38
2023-04-05T08:48:20.635Z,5.28
2023-04-05T08:50:53.440Z,4.50
2023-04-05T08:53:21.529Z,5.30
2023-04-05T08:55:52.126Z,5.10
2023-04-05T08:58:22.543Z,5.18
2023-04-05T09:00:52.039Z,5.22
2023-04-05T09:03:23.690Z,4.97
2023-04-05T09:05:54.140Z,4.68
2023-04-05T09:08:22.329Z,4.70
2023-04-05T09:10:52.036Z,4.78
2023-04-05T09:13:19.844Z,4.72
2023-04-05T09:15:48.035Z,4.10
2023-04-05T09:18:26.258Z,5.03
2023-04-05T09:21:04.134Z,4.45
2023-04-05T09:23:31.956Z,4.38
2023-04-05T09:25:59.727Z,6.38
2023-04-05T09:28:43.848Z,4.22
2023-04-05T09:33:39.550Z,5.00
2023-04-05T09:36:09.283Z,5.03
2023-04-05T09:38:47.648Z,5.05
2023-04-05T09:41:15.497Z,4.57
2023-04-05T09:43:44.028Z,5.07
2023-04-05T09:46:30.779Z,4.68
2023-04-05T09:48:58.640Z,4.28
2023-04-05T09:51:33.872Z,4.95
2023-04-05T09:54:03.067Z,4.97
2023-04-05T09:56:32.540Z,5.00
2023-04-05T09:59:02.346Z,4.97
2023-04-05T10:01:32.394Z,5.03
2023-04-05T10:04:01.010Z,4.82
2023-04-05T10:06:40.089Z,5.70
2023-04-05T10:09:09.656Z,5.60
2023-04-05T10:11:38.667Z,6.68
2023-04-05T10:14:07.821Z,4.93
2023-04-05T10:16:39.367Z,5.53
2023-04-05T10:19:14.733Z,5.00
2023-04-05T10:21:45.376Z,5.40
2023-04-05T10:24:23.345Z,5.18
2023-04-05T10:27:01.030Z,5.43
2023-04-05T10:29:36.007Z,5.15
2023-04-05T10:32:11.190Z,5.47
2023-04-05T10:34:46.484Z,4.65
2023-04-05T10:37:31.531Z,5.35
2023-04-05T10:40:04.469Z,5.50
2023-04-05T10:42:39.773Z,5.10
2023-04-05T10:45:11.478Z,5.72
2023-04-05T10:47:45.975Z,5.57
2023-04-05T10:50:21.329Z,5.65
2023-04-05T10:52:51.831Z,5.60
2023-04-05T10:55:20.251Z,5.07
2023-04-05T10:57:49.760Z,5.63
2023-04-05T11:00:19.729Z,5.82
2023-04-05T11:02:49.319Z,5.45
2023-04-05T11:05:37.389Z,5.38
2023-04-05T11:08:08.530Z,6.30
2023-04-05T11:10:38.703Z,5.85
2023-04-05T11:13:08.816Z,5.13
2023-04-05T11:15:37.193Z,5.30
2023-04-05T11:18:10.484Z,5.45
2023-04-05T11:20:46.150Z,5.38
2023-04-05T11:23:16.598Z,5.35
2023-04-05T11:25:49.452Z,5.50
2023-04-05T11:28:29.937Z,5.05
2023-04-05T11:30:59.039Z,4.95
2023-04-05T11:33:56.930Z,5.38
2023-04-05T11:36:41.823Z,5.63
2023-04-05T11:42:00.950Z,5.30
2023-04-05T11:44:30.399Z,5.07
2023-04-05T11:46:58.515Z,5.43
2023-04-05T11:49:26.947Z,5.25
2023-04-05T11:51:55.712Z,5.93
2023-04-05T11:54:32.216Z,5.97
2023-04-05T11:57:00.203Z,5.80
2023-04-05T11:59:32.791Z,5.53
2023-04-05T12:02:02.164Z,5.18
2023-04-05T12:04:29.967Z,6.22
2023-04-05T12:07:14.486Z,5.88
2023-04-05T12:10:03.692Z,5.80
2023-04-05T12:12:36.056Z,5.72
2023-04-05T12:15:05.391Z,4.93
2023-04-05T12:17:47.168Z,6.10
2023-04-05T12:20:16.827Z,5.63
2023-04-05T12:22:46.086Z,5.80
2023-04-05T12:25:16.066Z,5.65
2023-04-05T12:27:44.117Z,6.13
2023-04-05T12:30:18.060Z,5.75
2023-04-05T12:32:47.265Z,5.82
2023-04-05T12:35:17.454Z,5.88
2023-04-05T12:37:45.595Z,5.85
2023-04-05T12:40:15.311Z,6.07
2023-04-05T12:42:43.306Z,5.90
2023-04-05T12:45:13.310Z,5.60
2023-04-05T12:47:52.120Z,6.50
2023-04-05T12:50:27.271Z,6.13
2023-04-05T12:52:59.894Z,6.32
2023-04-05T12:55:30.891Z,5.88
2023-04-05T12:58:01.254Z,5.93
2023-04-05T13:00:31.135Z,5.95
2023-04-05T13:03:00.576Z,6.30
2023-04-05T13:05:30.038Z,5.85
2023-04-05T13:07:57.837Z,6.30
2023-04-05T13:10:26.559Z,6.70
2023-04-05T13:12:55.768Z,6.22
2023-04-05T13:15:23.707Z,6.30
2023-04-05T13:17:53.368Z,5.57
2023-04-05T13:20:21.836Z,5.90
2023-04-05T13:22:49.848Z,6.43
2023-04-05T13:25:18.143Z,6.50
2023-04-05T13:27:45.939Z,6.70
2023-04-05T13:30:15.465Z,6.60
2023-04-05T13:32:43.265Z,6.40
2023-04-05T13:35:11.724Z,6.15
2023-04-05T13:37:39.597Z,6.07
2023-04-05T13:40:08.768Z,6.88
2023-04-05T13:42:36.585Z,6.40
2023-04-05T13:45:04.658Z,7.00
2023-04-05T13:47:33.788Z,6.95
2023-04-05T13:50:02.708Z,7.18
2023-04-05T13:52:30.573Z,7.53
2023-04-05T13:55:02.206Z,7.78
2023-04-05T13:57:32.488Z,7.40
2023-04-05T14:00:00.546Z,6.60
2023-04-05T14:02:28.919Z,7.25
2023-04-05T14:04:58.193Z,7.38
2023-04-05T14:07:26.515Z,7.45
2023-04-05T14:09:54.212Z,6.32
2023-04-05T14:12:22.017Z,7.32
2023-04-05T14:14:49.777Z,7.63
2023-04-05T14:17:17.641Z,7.25
2023-04-05T14:19:45.506Z,7.28
2023-04-05T14:22:15.715Z,8.07
2023-04-05T14:24:43.543Z,6.72
2023-04-05T14:27:11.335Z,7.22
2023-04-05T14:29:39.153Z,7.20
2023-04-05T14:32:07.161Z,7.78
2023-04-05T14:34:36.210Z,8.32
2023-04-05T14:37:04.228Z,8.10
2023-04-05T14:39:33.486Z,7.75
2023-04-05T14:42:01.481Z,8.05
2023-04-05T14:44:29.323Z,7.93
2023-04-05T14:46:57.194Z,8.07
2023-04-05T14:49:24.992Z,8.63
2023-04-05T14:51:55.448Z,8.30
2023-04-05T14:54:23.299Z,8.00
2023-04-05T14:56:52.531Z,8.52
2023-04-05T14:59:20.393Z,8.02
2023-04-05T15:01:48.626Z,7.55
2023-04-05T15:04:16.446Z,7.13
2023-04-05T15:06:44.342Z,8.52
2023-04-05T15:09:12.205Z,7.75
2023-04-05T15:11:40.308Z,7.75
2023-04-05T15:14:15.451Z,7.68
2023-04-05T15:16:49.181Z,8.75
2023-04-05T15:19:17.560Z,7.80
2023-04-05T15:21:45.885Z,9.38
2023-04-05T15:24:13.761Z,8.68
2023-04-05T15:26:41.845Z,8.85
2023-04-05T15:29:11.051Z,9.73
2023-04-05T15:31:39.533Z,9.40
2023-04-05T15:34:08.445Z,9.93
2023-04-05T15:36:36.636Z,10.30
2023-04-05T15:39:05.365Z,9.63
2023-04-05T15:41:34.549Z,10.55
2023-04-05T15:44:03.605Z,9.60
2023-04-05T15:46:33.377Z,9.90
2023-04-05T15:49:01.530Z,10.32
2023-04-05T15:51:29.520Z,10.23
2023-04-05T15:53:57.382Z,10.05
2023-04-05T15:56:25.401Z,9.02
2023-04-05T15:58:53.312Z,9.50
2023-04-05T16:01:21.243Z,7.88
2023-04-05T16:03:50.824Z,8.95
2023-04-05T16:06:18.787Z,8.68
2023-04-05T16:08:46.589Z,9.18
2023-04-05T16:11:14.453Z,9.40
2023-04-05T16:13:42.295Z,10.50
2023-04-05T16:16:10.174Z,9.68
2023-04-05T16:18:38.104Z,10.20
2023-04-05T16:21:07.438Z,9.32
2023-04-05T16:23:35.538Z,9.85
2023-04-05T16:26:03.727Z,9.82
2023-04-05T16:28:31.845Z,9.05
2023-04-05T16:31:00.159Z,10.20
2023-04-05T16:33:28.048Z,10.80
2023-04-05T16:35:56.082Z,9.45
2023-04-05T16:38:25.575Z,9.55
2023-04-05T16:40:53.445Z,10.18
2023-04-05T16:43:21.262Z,10.35
2023-04-05T16:45:49.115Z,9.70
2023-04-05T16:48:17.449Z,9.73
2023-04-05T16:50:45.360Z,10.15
2023-04-05T16:53:15.007Z,9.85
2023-04-05T16:55:44.230Z,9.40
2023-04-05T16:58:12.125Z,9.43
2023-04-05T17:00:39.988Z,9.75
2023-04-05T17:03:07.983Z,9.70
2023-04-05T17:05:35.963Z,9.88
2023-04-05T17:08:03.807Z,10.32
2023-04-05T17:10:31.755Z,10.25
2023-04-05T17:13:00.936Z,9.15
2023-04-05T17:15:28.897Z,9.52
2023-04-05T17:17:56.913Z,9.80
2023-04-05T17:20:24.964Z,9.55
2023-04-05T17:22:53.266Z,10.05
2023-04-05T17:25:21.185Z,11.38
2023-04-05T17:27:49.009Z,10.15
2023-04-05T17:30:18.505Z,10.10
2023-04-05T17:32:46.530Z,10.18
2023-04-05T17:35:14.399Z,10.23
2023-04-05T17:37:42.205Z,9.80
2023-04-05T17:40:10.997Z,10.15
2023-04-05T17:42:38.890Z,9.68
2023-04-05T17:45:08.047Z,9.85
2023-04-05T17:47:37.313Z,10.27
2023-04-05T17:50:05.871Z,9.75
2023-04-05T17:52:33.770Z,10.55
2023-04-05T17:55:01.603Z,11.43
2023-04-05T17:57:29.473Z,10.77
2023-04-05T17:59:59.245Z,10.20
2023-04-05T18:02:27.964Z,9.73
2023-04-05T18:04:57.231Z,9.48
2023-04-05T18:07:25.045Z,9.65
2023-04-05T18:09:52.942Z,8.60
2023-04-05T18:12:20.789Z,15.57
2023-04-05T18:14:48.680Z,10.20
2023-04-05T18:17:17.864Z,10.45
2023-04-05T18:19:45.806Z,10.48
2023-04-05T18:22:15.044Z,11.23
2023-04-05T18:24:43.042Z,11.52
2023-04-05T18:27:11.398Z,10.98
2023-04-05T18:29:39.443Z,12.73
2023-04-05T18:32:08.266Z,12.82
2023-04-05T18:34:36.583Z,12.82
2023-04-05T18:37:04.470Z,12.80
2023-04-05T18:39:33.681Z,15.55
2023-04-05T18:42:02.766Z,16.25
2023-04-05T18:44:30.595Z,12.55
2023-04-05T18:46:58.763Z,13.55
2023-04-05T18:49:26.781Z,14.10
2023-04-05T18:51:55.884Z,12.38
2023-04-05T18:54:24.079Z,14.05
2023-04-05T18:56:53.285Z,13.80
2023-04-05T18:59:21.349Z,14.15
2023-04-05T19:01:49.311Z,14.27
2023-04-05T19:04:17.374Z,13.25
2023-04-05T19:06:45.238Z,14.55
2023-04-05T19:09:13.174Z,15.27
2023-04-05T19:11:40.992Z,13.73
2023-04-05T19:14:10.424Z,13.88
2023-04-05T19:16:38.283Z,14.32
2023-04-05T19:19:07.266Z,13.95
2023-04-05T19:21:35.431Z,16.35
2023-04-05T19:24:03.307Z,16.17
2023-04-05T19:26:32.066Z,16.35
2023-04-05T19:28:59.891Z,16.42
2023-04-05T19:31:29.718Z,17.73
2023-04-05T19:33:57.649Z,18.55
2023-04-05T19:36:26.026Z,19.02
2023-04-05T19:38:53.924Z,19.70
2023-04-05T19:41:21.782Z,18.58
2023-04-05T19:43:50.411Z,18.45
2023-04-05T19:46:19.093Z,19.05
2023-04-05T19:48:48.417Z,19.05
2023-04-05T19:51:18.152Z,19.17
2023-04-05T19:53:48.902Z,19.23
2023-04-05T19:56:19.442Z,19.80
2023-04-05T19:58:49.173Z,18.63
2023-04-05T20:01:32.203Z,21.17
2023-04-05T20:04:02.243Z,19.95
2023-04-05T20:06:34.644Z,19.48
2023-04-05T20:09:04.234Z,21.20
2023-04-05T20:11:32.067Z,22.30
2023-04-05T20:14:02.279Z,22.23
2023-04-05T20:16:31.679Z,20.80
2023-04-05T20:19:02.465Z,20.23
2023-04-05T20:21:30.928Z,20.08
2023-04-05T20:23:59.322Z,21.13
2023-04-05T20:26:29.333Z,22.48
2023-04-05T20:28:59.071Z,20.20
2023-04-05T20:31:29.260Z,21.42
2023-04-05T20:33:59.215Z,20.85
2023-04-05T20:36:33.894Z,22.13
2023-04-05T20:39:02.569Z,22.23
2023-04-05T20:41:31.448Z,22.10
2023-04-05T20:44:00.152Z,21.90
2023-04-05T20:46:28.157Z,23.20
2023-04-05T20:48:57.489Z,22.40
2023-04-05T20:51:25.635Z,24.88
2023-04-05T20:53:54.878Z,23.92
2023-04-05T20:56:22.746Z,24.98
2023-04-05T20:58:50.608Z,22.33
2023-04-05T21:01:18.506Z,23.83
2023-04-05T21:03:46.650Z,23.70
2023-04-05T21:06:14.550Z,22.77
2023-04-05T21:08:42.375Z,22.50
2023-04-05T21:11:12.024Z,23.70
2023-04-05T21:13:41.315Z,22.02
2023-04-05T21:16:09.561Z,23.80
2023-04-05T21:18:37.826Z,22.83
2023-04-05T21:21:06.114Z,24.85
2023-04-05T21:23:34.370Z,22.50
2023-04-05T21:26:04.187Z,24.20
2023-04-05T21:28:33.597Z,23.98
2023-04-05T21:31:01.528Z,23.80
2023-04-05T21:33:29.394Z,24.40
2023-04-05T21:35:57.261Z,23.63
2023-04-05T21:38:25.107Z,23.15
2023-04-05T21:40:52.951Z,23.98
2023-04-05T21:43:20.759Z,23.60
2023-04-05T21:45:49.921Z,25.35
2023-04-05T21:48:17.679Z,23.45
2023-04-05T21:50:45.478Z,22.95
2023-04-05T21:53:14.583Z,24.63
2023-04-05T21:55:42.488Z,23.63
2023-04-05T21:58:10.415Z,24.15
2023-04-05T22:00:38.298Z,22.73
2023-04-05T22:03:07.610Z,21.13
2023-04-05T22:05:38.596Z,23.38
2023-04-05T22:08:07.766Z,22.45
2023-04-05T22:10:36.441Z,24.05
2023-04-05T22:13:04.358Z,22.90
2023-04-05T22:15:32.177Z,22.67
2023-04-05T22:18:00.215Z,21.38
2023-04-05T22:20:29.506Z,21.48
2023-04-05T22:22:57.376Z,24.08
2023-04-05T22:25:26.395Z,23.80
2023-04-05T22:27:59.463Z,22.27
2023-04-05T22:30:28.252Z,21.67
2023-04-05T22:32:56.407Z,20.00
2023-04-05T22:35:24.320Z,20.83
2023-04-05T22:37:53.550Z,21.02
2023-04-05T22:40:26.311Z,20.88
2023-04-05T22:42:54.218Z,18.50
2023-04-05T22:45:22.053Z,17.83
2023-04-05T22:47:49.889Z,15.65
2023-04-05T22:50:18.390Z,17.63
2023-04-05T22:52:46.605Z,17.13
2023-04-05T22:55:16.021Z,15.15
2023-04-05T22:57:43.848Z,16.15
2023-04-05T23:00:13.544Z,14.25
2023-04-05T23:02:41.341Z,14.45
2023-04-05T23:05:10.012Z,13.25
2023-04-05T23:07:37.802Z,13.70
2023-04-05T23:10:06.275Z,13.13
2023-04-05T23:12:35.673Z,12.90
2023-04-05T23:15:03.485Z,12.27
2023-04-05T23:17:31.588Z,12.18
2023-04-05T23:19:59.441Z,12.50
2023-04-05T23:22:27.537Z,12.95
2023-04-05T23:24:55.331Z,11.05
2023-04-05T23:27:23.092Z,12.55
2023-04-05T23:29:52.244Z,12.43
2023-04-05T23:32:20.143Z,10.90
2023-04-05T23:34:48.136Z,11.25
2023-04-05T23:37:16.424Z,10.50
2023-04-05T23:39:44.418Z,10.07
2023-04-05T23:42:12.166Z,10.68
2023-04-05T23:44:39.967Z,9.85
2023-04-05T23:47:09.238Z,9.77
2023-04-05T23:49:37.044Z,11.05
2023-04-05T23:52:05.163Z,9.93
2023-04-05T23:54:32.942Z,11.02
2023-04-05T23:57:01.452Z,9.10
2023-04-05T23:59:29.299Z,9.48
